createdAt,value
2019-05-17T00:00:01.711Z,999.21
2019-05-17T00:01:01.666Z,999.21
2019-05-17T00:02:01.675Z,999.17
2019-05-17T00:03:01.665Z,999.14
2019-05-17T00:04:01.655Z,999.16
2019-05-17T00:05:01.645Z,999.19
2019-05-17T00:06:01.636Z,999.17
2019-05-17T00:07:01.607Z,999.09
2019-05-17T00:08:01.597Z,999.13
2019-05-17T00:09:02.046Z,999.09
2019-05-17T00:10:01.596Z,999.14
2019-05-17T00:11:01.556Z,999.08
2019-05-17T00:12:01.661Z,999.05
2019-05-17T00:13:01.556Z,999.14
2019-05-17T00:14:01.646Z,999.00
2019-05-17T00:15:01.549Z,998.94
2019-05-17T00:16:01.608Z,998.99
2019-05-17T00:17:01.628Z,998.96
2019-05-17T00:18:01.512Z,998.91
2019-05-17T00:19:01.476Z,998.92
2019-05-17T00:20:01.496Z,998.94
2019-05-17T00:21:01.457Z,998.93
2019-05-17T00:22:01.557Z,998.86
2019-05-17T00:23:01.456Z,998.91
2019-05-17T00:24:01.439Z,998.80
2019-05-17T00:25:01.407Z,998.82
2019-05-17T00:26:01.430Z,998.82
2019-05-17T00:27:01.507Z,998.78
2019-05-17T00:28:01.401Z,998.78
2019-05-17T00:29:01.392Z,998.75
2019-05-17T00:30:01.367Z,998.76
2019-05-17T00:31:01.346Z,998.77
2019-05-17T00:32:01.457Z,998.78
2019-05-17T00:33:01.350Z,998.81
2019-05-17T00:34:01.317Z,998.76
2019-05-17T00:35:01.319Z,998.72
2019-05-17T00:36:01.320Z,998.79
2019-05-17T00:37:01.337Z,998.70
2019-05-17T00:38:01.290Z,998.70
2019-05-17T00:39:01.282Z,998.71
2019-05-17T00:40:01.272Z,998.62
2019-05-17T00:41:01.247Z,998.69
2019-05-17T00:42:01.237Z,998.60
2019-05-17T00:43:01.309Z,998.60
2019-05-17T00:44:01.206Z,998.59
2019-05-17T00:45:01.208Z,998.60
2019-05-17T00:46:01.197Z,998.56
2019-05-17T00:47:01.197Z,998.55
2019-05-17T00:48:01.191Z,998.54
2019-05-17T00:49:01.167Z,998.57
2019-05-17T00:50:01.158Z,998.57
2019-05-17T00:51:02.404Z,998.53
2019-05-17T00:52:01.139Z,998.56
2019-05-17T00:53:01.127Z,998.51
2019-05-17T00:54:01.108Z,998.50
2019-05-17T00:55:01.112Z,998.47
2019-05-17T00:56:01.087Z,998.44
2019-05-17T00:57:01.083Z,998.39
2019-05-17T00:58:01.068Z,998.42
2019-05-17T00:59:01.127Z,998.38
2019-05-17T01:00:01.058Z,998.45
2019-05-17T01:01:01.039Z,998.43
2019-05-17T01:02:01.027Z,998.48
2019-05-17T01:03:01.030Z,998.46
2019-05-17T01:04:01.017Z,998.39
2019-05-17T01:05:00.977Z,998.43
2019-05-17T01:06:00.968Z,998.46
2019-05-17T01:07:00.977Z,998.37
2019-05-17T01:08:00.938Z,998.37
2019-05-17T01:09:04.114Z,998.38
2019-05-17T01:10:01.038Z,998.32
2019-05-17T01:11:00.928Z,998.38
2019-05-17T01:12:00.919Z,998.36
2019-05-17T01:13:00.888Z,998.24
2019-05-17T01:14:00.898Z,998.30
2019-05-17T01:15:00.888Z,998.26
2019-05-17T01:16:00.979Z,998.23
2019-05-17T01:17:00.858Z,998.26
2019-05-17T01:18:00.839Z,998.26
2019-05-17T01:19:00.839Z,998.27
2019-05-17T01:20:00.918Z,998.26
2019-05-17T01:21:00.809Z,998.22
2019-05-17T01:22:00.800Z,998.19
2019-05-17T01:23:00.799Z,998.18
2019-05-17T01:24:00.789Z,998.17
2019-05-17T01:25:00.832Z,998.15
2019-05-17T01:26:00.869Z,998.16
2019-05-17T01:27:00.740Z,998.17
2019-05-17T01:28:00.739Z,998.16
2019-05-17T01:29:00.720Z,998.18
2019-05-17T01:30:00.833Z,998.18
2019-05-17T01:31:00.699Z,998.15
2019-05-17T01:32:00.709Z,998.14
2019-05-17T01:33:00.792Z,998.12
2019-05-17T01:34:00.679Z,998.12
2019-05-17T01:35:00.660Z,998.18
2019-05-17T01:36:00.640Z,998.21
2019-05-17T01:37:00.652Z,998.11
2019-05-17T01:38:00.629Z,998.21
2019-05-17T01:39:14.118Z,998.11
2019-05-17T01:40:01.619Z,998.13
2019-05-17T01:41:00.589Z,998.12
2019-05-17T01:42:00.589Z,998.16
2019-05-17T01:43:00.581Z,998.06
2019-05-17T01:44:00.674Z,998.16
2019-05-17T01:45:00.539Z,998.09
2019-05-17T01:46:00.549Z,998.07
2019-05-17T01:47:00.540Z,998.10
2019-05-17T01:48:00.633Z,998.07
2019-05-17T01:49:00.542Z,998.08
2019-05-17T01:50:00.493Z,998.04
2019-05-17T01:51:00.511Z,998.07
2019-05-17T01:52:00.480Z,998.02
2019-05-17T01:53:00.499Z,998.02
2019-05-17T01:54:00.473Z,998.06
2019-05-17T01:55:00.440Z,997.98
2019-05-17T01:56:00.571Z,998.01
2019-05-17T01:57:00.423Z,997.97
2019-05-17T01:58:00.421Z,997.97
2019-05-17T01:59:00.400Z,997.96
2019-05-17T02:00:00.400Z,997.98
2019-05-17T02:01:00.383Z,998.00
2019-05-17T02:02:00.481Z,997.97
2019-05-17T02:03:00.375Z,998.00
2019-05-17T02:04:00.351Z,997.92
2019-05-17T02:05:00.374Z,997.98
2019-05-17T02:06:00.334Z,997.95
2019-05-17T02:07:00.368Z,997.98
2019-05-17T02:08:00.442Z,997.94
2019-05-17T02:09:00.291Z,997.96
2019-05-17T02:10:00.300Z,997.94
2019-05-17T02:11:00.260Z,997.86
2019-05-17T02:12:00.271Z,997.91
2019-05-17T02:13:00.261Z,997.93
2019-05-17T02:14:00.335Z,997.98
2019-05-17T02:15:00.221Z,997.93
2019-05-17T02:16:00.221Z,997.92
2019-05-17T02:17:00.201Z,997.92
2019-05-17T02:18:00.334Z,997.94
2019-05-17T02:19:00.191Z,997.98
2019-05-17T02:20:00.180Z,997.96
2019-05-17T02:21:00.262Z,997.94
2019-05-17T02:22:00.151Z,997.94
2019-05-17T02:23:00.153Z,997.95
2019-05-17T02:24:00.131Z,997.97
2019-05-17T02:25:00.115Z,997.94
2019-05-17T02:26:00.191Z,997.96
2019-05-17T02:27:00.101Z,997.89
2019-05-17T02:28:01.505Z,997.92
2019-05-17T02:29:01.419Z,997.95
2019-05-17T02:30:02.599Z,997.92
2019-05-17T02:31:03.242Z,997.94
2019-05-17T02:32:03.516Z,997.95
2019-05-17T02:33:03.402Z,997.93
2019-05-17T02:34:02.805Z,997.87
2019-05-17T02:35:03.020Z,997.87
2019-05-17T02:36:02.749Z,997.87
2019-05-17T02:37:02.730Z,997.84
2019-05-17T02:38:02.887Z,997.84
2019-05-17T02:39:03.357Z,997.84
2019-05-17T02:40:04.655Z,997.82
2019-05-17T02:41:03.311Z,997.81
2019-05-17T02:42:02.563Z,997.78
2019-05-17T02:43:02.951Z,997.79
2019-05-17T02:44:02.365Z,997.77
2019-05-17T02:45:03.086Z,997.78
2019-05-17T02:46:03.246Z,997.79
2019-05-17T02:47:02.881Z,997.74
2019-05-17T02:48:03.255Z,997.76
2019-05-17T02:49:02.785Z,997.76
2019-05-17T02:49:59.834Z,997.79
2019-05-17T02:51:03.143Z,997.76
2019-05-17T02:52:02.916Z,997.86
2019-05-17T02:52:59.916Z,997.75
2019-05-17T02:54:03.446Z,997.77
2019-05-17T02:55:03.674Z,997.75
2019-05-17T02:56:02.967Z,997.70
2019-05-17T02:57:02.820Z,997.69
2019-05-17T02:58:02.549Z,997.72
2019-05-17T02:58:59.746Z,997.65
2019-05-17T03:00:04.033Z,997.63
2019-05-17T03:00:59.735Z,997.67
2019-05-17T03:02:03.191Z,997.65
2019-05-17T03:03:03.000Z,997.68
2019-05-17T03:03:59.693Z,997.61
2019-05-17T03:05:03.571Z,997.70
2019-05-17T03:06:02.635Z,997.70
2019-05-17T03:06:59.803Z,997.71
2019-05-17T03:08:03.559Z,997.70
2019-05-17T03:09:03.113Z,997.67
2019-05-17T03:10:13.619Z,997.71
2019-05-17T03:11:03.302Z,997.69
2019-05-17T03:12:02.991Z,997.69
2019-05-17T03:12:59.713Z,997.68
2019-05-17T03:13:59.598Z,997.73
2019-05-17T03:14:59.575Z,997.71
2019-05-17T03:15:59.563Z,997.71
2019-05-17T03:17:02.900Z,997.71
2019-05-17T03:18:03.168Z,997.69
2019-05-17T03:18:59.524Z,997.72
2019-05-17T03:19:59.536Z,997.70
2019-05-17T03:21:03.348Z,997.72
2019-05-17T03:22:04.219Z,997.65
2019-05-17T03:23:03.575Z,997.65
2019-05-17T03:24:02.890Z,997.68
2019-05-17T03:25:02.890Z,997.60
2019-05-17T03:25:59.445Z,997.59
2019-05-17T03:26:59.462Z,997.56
2019-05-17T03:28:02.573Z,997.59
2019-05-17T03:29:02.874Z,997.61
2019-05-17T03:30:03.742Z,997.54
2019-05-17T03:30:59.401Z,997.51
2019-05-17T03:32:02.434Z,997.50
2019-05-17T03:33:06.225Z,997.56
2019-05-17T03:34:05.686Z,997.57
2019-05-17T03:35:06.068Z,997.54
2019-05-17T03:36:05.381Z,997.57
2019-05-17T03:37:05.526Z,997.55
2019-05-17T03:38:03.513Z,997.54
2019-05-17T03:39:02.880Z,997.55
2019-05-17T03:40:02.694Z,997.52
2019-05-17T03:41:13.869Z,997.49
2019-05-17T03:42:02.649Z,997.52
2019-05-17T03:43:02.536Z,997.54
2019-05-17T03:44:02.930Z,997.53
2019-05-17T03:45:02.610Z,997.55
2019-05-17T03:46:02.429Z,997.53
2019-05-17T03:47:02.162Z,997.49
2019-05-17T03:47:59.234Z,997.51
2019-05-17T03:48:59.215Z,997.54
2019-05-17T03:50:02.779Z,997.54
2019-05-17T03:51:02.328Z,997.51
2019-05-17T03:52:02.470Z,997.53
2019-05-17T03:53:02.174Z,997.58
2019-05-17T03:54:02.107Z,997.50
2019-05-17T03:54:59.137Z,997.46
2019-05-17T03:55:59.140Z,997.47
2019-05-17T03:57:02.299Z,997.51
2019-05-17T03:58:02.619Z,997.47
2019-05-17T03:58:59.229Z,997.45
2019-05-17T03:59:59.095Z,997.43
2019-05-17T04:00:59.067Z,997.46
2019-05-17T04:01:59.077Z,997.40
2019-05-17T04:02:59.091Z,997.38
2019-05-17T04:04:02.546Z,997.37
2019-05-17T04:04:59.058Z,997.44
2019-05-17T04:05:59.034Z,997.41
2019-05-17T04:06:59.025Z,997.42
2019-05-17T04:07:58.995Z,997.49
2019-05-17T04:08:59.139Z,997.41
2019-05-17T04:09:58.985Z,997.46
2019-05-17T04:11:16.322Z,997.43
2019-05-17T04:12:02.648Z,997.44
2019-05-17T04:12:58.945Z,997.47
2019-05-17T04:13:58.961Z,997.49
2019-05-17T04:15:02.862Z,997.50
2019-05-17T04:15:59.022Z,997.54
2019-05-17T04:16:58.918Z,997.52
2019-05-17T04:17:58.906Z,997.47
2019-05-17T04:18:58.876Z,997.52
2019-05-17T04:19:58.886Z,997.49
2019-05-17T04:20:58.937Z,997.47
2019-05-17T04:21:58.853Z,997.49
2019-05-17T04:22:58.835Z,997.48
2019-05-17T04:23:58.838Z,997.46
2019-05-17T04:24:58.806Z,997.50
2019-05-17T04:25:58.818Z,997.45
2019-05-17T04:26:58.799Z,997.48
2019-05-17T04:27:58.776Z,997.47
2019-05-17T04:28:58.767Z,997.52
2019-05-17T04:29:58.769Z,997.51
2019-05-17T04:30:58.757Z,997.45
2019-05-17T04:31:58.747Z,997.36
2019-05-17T04:32:58.746Z,997.48
2019-05-17T04:33:58.715Z,997.43
2019-05-17T04:34:58.721Z,997.39
2019-05-17T04:35:58.742Z,997.43
2019-05-17T04:36:58.677Z,997.36
2019-05-17T04:37:58.677Z,997.44
2019-05-17T04:38:58.670Z,997.40
2019-05-17T04:39:58.649Z,997.43
2019-05-17T04:40:58.637Z,997.43
2019-05-17T04:41:58.639Z,997.44
2019-05-17T04:42:58.618Z,997.43
2019-05-17T04:43:58.609Z,997.45
2019-05-17T04:44:58.594Z,997.41
2019-05-17T04:45:58.583Z,997.39
2019-05-17T04:46:58.590Z,997.41
2019-05-17T04:47:58.563Z,997.47
2019-05-17T04:48:58.558Z,997.42
2019-05-17T04:49:58.549Z,997.42
2019-05-17T04:50:58.546Z,997.38
2019-05-17T04:51:58.527Z,997.45
2019-05-17T04:52:58.520Z,997.45
2019-05-17T04:53:58.512Z,997.36
2019-05-17T04:54:58.506Z,997.38
2019-05-17T04:55:58.491Z,997.41
2019-05-17T04:56:58.498Z,997.32
2019-05-17T04:57:58.456Z,997.39
2019-05-17T04:58:58.454Z,997.32
2019-05-17T04:59:58.435Z,997.35
2019-05-17T05:00:58.428Z,997.31
2019-05-17T05:01:58.417Z,997.25
2019-05-17T05:02:58.408Z,997.27
2019-05-17T05:03:58.410Z,997.30
2019-05-17T05:04:58.378Z,997.29
2019-05-17T05:05:58.383Z,997.30
2019-05-17T05:06:58.359Z,997.29
2019-05-17T05:07:58.373Z,997.24
2019-05-17T05:08:58.338Z,997.20
2019-05-17T05:09:58.339Z,997.19
2019-05-17T05:10:58.341Z,997.28
2019-05-17T05:12:04.762Z,997.25
2019-05-17T05:12:59.372Z,997.21
2019-05-17T05:13:58.282Z,997.21
2019-05-17T05:14:58.269Z,997.11
2019-05-17T05:15:58.276Z,997.22
2019-05-17T05:16:58.259Z,997.14
2019-05-17T05:17:58.249Z,997.13
2019-05-17T05:18:58.350Z,997.17
2019-05-17T05:19:58.229Z,997.13
2019-05-17T05:20:58.219Z,997.17
2019-05-17T05:21:58.199Z,997.16
2019-05-17T05:22:58.199Z,997.14
2019-05-17T05:23:58.279Z,997.14
2019-05-17T05:24:58.168Z,997.13
2019-05-17T05:25:58.209Z,997.12
2019-05-17T05:26:58.139Z,997.09
2019-05-17T05:27:58.150Z,997.11
2019-05-17T05:28:58.129Z,997.16
2019-05-17T05:29:58.251Z,997.08
2019-05-17T05:30:58.109Z,997.10
2019-05-17T05:31:58.100Z,997.05
2019-05-17T05:32:58.109Z,997.08
2019-05-17T05:33:58.119Z,997.10
2019-05-17T05:34:58.189Z,997.18
2019-05-17T05:35:58.059Z,997.12
2019-05-17T05:36:58.038Z,997.07
2019-05-17T05:37:58.020Z,997.11
2019-05-17T05:38:58.010Z,997.18
2019-05-17T05:39:58.020Z,997.21
2019-05-17T05:40:58.021Z,997.18
2019-05-17T05:42:06.784Z,997.16
2019-05-17T05:42:58.979Z,997.18
2019-05-17T05:43:57.981Z,997.20
2019-05-17T05:44:57.978Z,997.19
2019-05-17T05:45:57.951Z,997.22
2019-05-17T05:46:57.942Z,997.19
2019-05-17T05:47:57.942Z,997.13
2019-05-17T05:48:57.932Z,997.22
2019-05-17T05:49:57.910Z,997.21
2019-05-17T05:50:57.983Z,997.19
2019-05-17T05:51:57.889Z,997.21
2019-05-17T05:52:57.964Z,997.24
2019-05-17T05:53:57.874Z,997.18
2019-05-17T05:54:57.863Z,997.27
2019-05-17T05:55:57.972Z,997.21
2019-05-17T05:56:57.821Z,997.22
2019-05-17T05:57:57.812Z,997.18
2019-05-17T05:58:57.800Z,997.14
2019-05-17T05:59:57.805Z,997.18
2019-05-17T06:00:57.885Z,997.22
2019-05-17T06:01:57.785Z,997.18
2019-05-17T06:02:57.775Z,997.16
2019-05-17T06:03:57.768Z,997.15
2019-05-17T06:04:57.764Z,997.17
2019-05-17T06:05:57.744Z,997.18
2019-05-17T06:06:57.841Z,997.20
2019-05-17T06:07:57.712Z,997.20
2019-05-17T06:08:57.692Z,997.18
2019-05-17T06:09:57.694Z,997.19
2019-05-17T06:10:57.723Z,997.16
2019-05-17T06:11:57.713Z,997.22
2019-05-17T06:12:57.765Z,997.24
2019-05-17T06:13:57.654Z,997.27
2019-05-17T06:14:57.633Z,997.14
2019-05-17T06:15:57.742Z,997.20
2019-05-17T06:16:57.642Z,997.17
2019-05-17T06:17:57.636Z,997.14
2019-05-17T06:18:57.602Z,997.13
2019-05-17T06:19:57.590Z,997.16
2019-05-17T06:20:57.679Z,997.15
2019-05-17T06:21:57.571Z,997.09
2019-05-17T06:22:57.552Z,997.10
2019-05-17T06:23:57.542Z,997.06
2019-05-17T06:24:57.532Z,997.04
2019-05-17T06:25:57.503Z,997.09
2019-05-17T06:26:57.622Z,997.03
2019-05-17T06:27:57.515Z,997.05
2019-05-17T06:28:57.492Z,997.05
2019-05-17T06:29:57.483Z,997.03
2019-05-17T06:30:57.486Z,997.10
2019-05-17T06:31:57.592Z,997.18
2019-05-17T06:32:57.456Z,997.22
2019-05-17T06:33:57.427Z,997.16
2019-05-17T06:34:57.422Z,997.15
2019-05-17T06:35:57.427Z,997.13
2019-05-17T06:36:57.419Z,997.16
2019-05-17T06:37:57.486Z,997.10
2019-05-17T06:38:57.373Z,997.11
2019-05-17T06:39:57.373Z,997.20
2019-05-17T06:40:57.363Z,997.12
2019-05-17T06:41:57.355Z,997.10
2019-05-17T06:42:57.416Z,997.08
2019-05-17T06:43:57.324Z,997.15
2019-05-17T06:44:57.303Z,997.12
2019-05-17T06:45:57.294Z,997.11
2019-05-17T06:46:57.307Z,997.17
2019-05-17T06:47:57.373Z,997.10
2019-05-17T06:48:57.264Z,997.02
2019-05-17T06:49:57.266Z,997.08
2019-05-17T06:50:57.257Z,997.08
2019-05-17T06:51:57.257Z,997.03
2019-05-17T06:52:57.297Z,997.04
2019-05-17T06:53:57.224Z,997.04
2019-05-17T06:54:57.214Z,996.97
2019-05-17T06:55:57.209Z,997.04
2019-05-17T06:56:57.208Z,997.05
2019-05-17T06:57:57.218Z,997.01
2019-05-17T06:58:57.165Z,997.00
2019-05-17T06:59:59.284Z,997.01
2019-05-17T07:00:57.145Z,996.93
2019-05-17T07:01:57.139Z,996.98
2019-05-17T07:02:57.142Z,996.97
2019-05-17T07:03:57.106Z,997.01
2019-05-17T07:04:57.115Z,997.08
2019-05-17T07:05:57.096Z,997.04
2019-05-17T07:06:57.074Z,996.98
2019-05-17T07:07:57.203Z,997.04
2019-05-17T07:08:57.094Z,997.00
2019-05-17T07:09:57.063Z,997.03
2019-05-17T07:11:11.959Z,996.95
2019-05-17T07:11:57.016Z,996.95
2019-05-17T07:12:59.653Z,996.94
2019-05-17T07:13:57.067Z,996.91
2019-05-17T07:14:58.426Z,996.92
2019-05-17T07:15:57.000Z,996.93
2019-05-17T07:16:59.467Z,996.85
2019-05-17T07:17:56.971Z,996.93
2019-05-17T07:18:57.079Z,996.87
2019-05-17T07:19:59.511Z,996.90
2019-05-17T07:20:56.930Z,996.90
2019-05-17T07:21:56.921Z,996.94
2019-05-17T07:22:56.922Z,996.95
2019-05-17T07:23:59.261Z,996.87
2019-05-17T07:24:56.980Z,996.86
2019-05-17T07:25:56.886Z,996.82
2019-05-17T07:26:59.111Z,996.91
2019-05-17T07:27:56.860Z,996.91
2019-05-17T07:28:59.138Z,996.84
2019-05-17T07:29:59.104Z,996.89
2019-05-17T07:30:56.832Z,996.83
2019-05-17T07:31:56.818Z,996.96
2019-05-17T07:32:56.788Z,996.84
2019-05-17T07:33:56.789Z,996.87
2019-05-17T07:34:56.769Z,996.84
2019-05-17T07:35:56.759Z,996.85
2019-05-17T07:36:56.759Z,996.90
2019-05-17T07:37:56.739Z,996.80
2019-05-17T07:38:56.721Z,996.82
2019-05-17T07:40:04.005Z,996.78
2019-05-17T07:40:59.568Z,996.78
2019-05-17T07:41:56.700Z,996.77
2019-05-17T07:43:10.189Z,996.87
2019-05-17T07:43:57.673Z,996.78
2019-05-17T07:44:56.671Z,996.79
2019-05-17T07:45:56.761Z,996.77
2019-05-17T07:46:56.773Z,996.73
2019-05-17T07:47:56.644Z,996.78
2019-05-17T07:48:56.630Z,996.74
2019-05-17T07:49:56.711Z,996.75
2019-05-17T07:50:56.613Z,996.72
2019-05-17T07:51:56.694Z,996.66
2019-05-17T07:52:56.685Z,996.68
2019-05-17T07:53:56.563Z,996.65
2019-05-17T07:54:56.546Z,996.67
2019-05-17T07:55:56.551Z,996.62
2019-05-17T07:56:56.541Z,996.65
2019-05-17T07:57:56.512Z,996.64
2019-05-17T07:58:56.642Z,996.57
2019-05-17T07:59:56.506Z,996.66
2019-05-17T08:00:56.504Z,996.61
2019-05-17T08:01:56.472Z,996.61
2019-05-17T08:02:56.464Z,996.63
2019-05-17T08:03:56.475Z,996.61
2019-05-17T08:04:56.583Z,996.56
2019-05-17T08:05:56.446Z,996.57
2019-05-17T08:06:56.438Z,996.65
2019-05-17T08:07:56.423Z,996.59
2019-05-17T08:08:56.408Z,996.52
2019-05-17T08:09:56.406Z,996.49
2019-05-17T08:10:56.475Z,996.48
2019-05-17T08:11:56.387Z,996.50
2019-05-17T08:12:56.354Z,996.49
2019-05-17T08:13:56.369Z,996.45
2019-05-17T08:14:56.335Z,996.50
2019-05-17T08:15:56.354Z,996.47
2019-05-17T08:16:56.325Z,996.38
2019-05-17T08:17:59.328Z,996.47
2019-05-17T08:18:57.305Z,996.52
2019-05-17T08:19:56.293Z,996.45
2019-05-17T08:20:56.314Z,996.49
2019-05-17T08:21:56.254Z,996.49
2019-05-17T08:22:56.285Z,996.41
2019-05-17T08:23:56.285Z,996.42
2019-05-17T08:24:56.267Z,996.42
2019-05-17T08:25:56.388Z,996.34
2019-05-17T08:26:56.208Z,996.36
2019-05-17T08:27:56.205Z,996.44
2019-05-17T08:28:56.196Z,996.37
2019-05-17T08:29:56.298Z,996.39
2019-05-17T08:30:56.286Z,996.38
2019-05-17T08:31:56.156Z,996.41
2019-05-17T08:32:56.156Z,996.38
2019-05-17T08:33:56.129Z,996.44
2019-05-17T08:34:56.116Z,996.39
2019-05-17T08:35:56.176Z,996.41
2019-05-17T08:36:56.108Z,996.45
2019-05-17T08:37:56.096Z,996.44
2019-05-17T08:38:56.076Z,996.40
2019-05-17T08:39:56.086Z,996.49
2019-05-17T08:40:56.083Z,996.41
2019-05-17T08:41:56.162Z,996.44
2019-05-17T08:42:56.058Z,996.42
2019-05-17T08:43:56.031Z,996.44
2019-05-17T08:44:56.117Z,996.43
2019-05-17T08:45:58.406Z,996.39
2019-05-17T08:46:55.998Z,996.44
2019-05-17T08:47:56.000Z,996.45
2019-05-17T08:48:56.098Z,996.46
2019-05-17T08:49:56.034Z,996.41
2019-05-17T08:51:10.898Z,996.43
2019-05-17T08:51:55.958Z,996.39
2019-05-17T08:52:55.938Z,996.44
2019-05-17T08:53:55.928Z,996.38
2019-05-17T08:54:55.898Z,996.35
2019-05-17T08:55:55.907Z,996.33
2019-05-17T08:56:55.898Z,996.33
2019-05-17T08:57:55.878Z,996.39
2019-05-17T08:58:55.869Z,996.33
2019-05-17T08:59:55.861Z,996.34
2019-05-17T09:00:55.887Z,996.30
2019-05-17T09:01:55.845Z,996.32
2019-05-17T09:02:55.852Z,996.38
2019-05-17T09:03:55.819Z,996.34
2019-05-17T09:04:55.802Z,996.35
2019-05-17T09:05:55.779Z,996.38
2019-05-17T09:06:55.806Z,996.29
2019-05-17T09:07:55.831Z,996.34
2019-05-17T09:08:55.759Z,996.35
2019-05-17T09:09:55.752Z,996.29
2019-05-17T09:10:55.840Z,996.33
2019-05-17T09:11:55.743Z,996.32
2019-05-17T09:12:55.710Z,996.33
2019-05-17T09:14:01.139Z,996.25
2019-05-17T09:14:56.699Z,996.31
2019-05-17T09:15:55.699Z,996.32
2019-05-17T09:16:55.773Z,996.28
2019-05-17T09:17:55.670Z,996.26
2019-05-17T09:18:55.769Z,996.29
2019-05-17T09:19:55.654Z,996.26
2019-05-17T09:20:55.641Z,996.25
2019-05-17T09:21:55.737Z,996.25
2019-05-17T09:22:55.644Z,996.25
2019-05-17T09:23:55.641Z,996.34
2019-05-17T09:24:55.591Z,996.26
2019-05-17T09:25:55.681Z,996.24
2019-05-17T09:26:55.585Z,996.29
2019-05-17T09:27:55.562Z,996.29
2019-05-17T09:28:55.559Z,996.26
2019-05-17T09:29:55.622Z,996.29
2019-05-17T09:30:55.535Z,996.24
2019-05-17T09:31:55.527Z,996.21
2019-05-17T09:32:55.622Z,996.18
2019-05-17T09:33:55.501Z,996.26
2019-05-17T09:34:55.484Z,996.13
2019-05-17T09:35:55.474Z,996.22
2019-05-17T09:36:55.463Z,996.20
2019-05-17T09:37:55.553Z,996.20
2019-05-17T09:38:55.432Z,996.21
2019-05-17T09:39:55.434Z,996.17
2019-05-17T09:40:55.412Z,996.26
2019-05-17T09:41:55.411Z,996.27
2019-05-17T09:42:55.424Z,996.11
2019-05-17T09:44:07.748Z,996.08
2019-05-17T09:44:56.363Z,996.07
2019-05-17T09:45:55.364Z,996.10
2019-05-17T09:46:55.354Z,996.05
2019-05-17T09:47:55.345Z,996.03
2019-05-17T09:48:55.497Z,996.09
2019-05-17T09:49:55.416Z,996.05
2019-05-17T09:50:55.316Z,995.97
2019-05-17T09:51:55.305Z,996.03
2019-05-17T09:52:55.306Z,995.97
2019-05-17T09:53:55.267Z,996.02
2019-05-17T09:54:55.273Z,996.06
2019-05-17T09:55:55.251Z,996.01
2019-05-17T09:56:55.245Z,996.09
2019-05-17T09:57:55.235Z,996.10
2019-05-17T09:58:55.215Z,996.06
2019-05-17T09:59:56.002Z,996.04
2019-05-17T10:00:55.196Z,996.04
2019-05-17T10:01:55.195Z,995.97
2019-05-17T10:02:55.187Z,995.95
2019-05-17T10:03:55.199Z,995.89
2019-05-17T10:04:55.316Z,996.00
2019-05-17T10:05:55.250Z,995.97
2019-05-17T10:06:55.137Z,995.95
2019-05-17T10:07:55.227Z,996.08
2019-05-17T10:08:55.097Z,995.98
2019-05-17T10:09:55.241Z,995.94
2019-05-17T10:11:06.037Z,995.95
2019-05-17T10:11:56.091Z,995.97
2019-05-17T10:12:55.068Z,995.94
2019-05-17T10:13:55.067Z,995.96
2019-05-17T10:14:55.048Z,995.96
2019-05-17T10:15:55.130Z,995.93
2019-05-17T10:16:55.029Z,995.94
2019-05-17T10:17:55.018Z,995.97
2019-05-17T10:18:55.017Z,995.93
2019-05-17T10:19:55.019Z,995.96
2019-05-17T10:20:54.989Z,995.94
2019-05-17T10:21:54.949Z,995.89
2019-05-17T10:22:54.939Z,995.84
2019-05-17T10:23:54.939Z,995.89
2019-05-17T10:24:54.944Z,995.91
2019-05-17T10:25:54.929Z,995.90
2019-05-17T10:26:55.030Z,995.85
2019-05-17T10:27:54.951Z,995.90
2019-05-17T10:28:54.900Z,995.84
2019-05-17T10:29:54.877Z,995.86
2019-05-17T10:30:54.870Z,995.86
2019-05-17T10:31:54.962Z,995.85
2019-05-17T10:32:54.831Z,995.89
2019-05-17T10:33:54.822Z,995.92
2019-05-17T10:34:54.831Z,995.80
2019-05-17T10:35:54.821Z,995.87
2019-05-17T10:36:54.813Z,995.87
2019-05-17T10:37:54.912Z,995.90
2019-05-17T10:38:54.791Z,995.88
2019-05-17T10:39:54.801Z,995.84
2019-05-17T10:40:54.775Z,995.81
2019-05-17T10:41:54.772Z,995.78
2019-05-17T10:42:54.752Z,995.80
2019-05-17T10:43:54.722Z,995.88
2019-05-17T10:44:54.927Z,995.85
2019-05-17T10:45:54.713Z,995.81
2019-05-17T10:46:54.704Z,995.83
2019-05-17T10:47:54.821Z,995.94
2019-05-17T10:48:54.696Z,995.88
2019-05-17T10:49:54.677Z,995.96
2019-05-17T10:50:54.664Z,995.87
2019-05-17T10:51:54.656Z,995.81
2019-05-17T10:52:54.678Z,995.81
2019-05-17T10:53:54.634Z,995.83
2019-05-17T10:54:54.618Z,995.84
2019-05-17T10:55:54.605Z,995.83
2019-05-17T10:56:54.597Z,995.71
2019-05-17T10:57:54.565Z,995.75
2019-05-17T10:58:54.665Z,995.91
2019-05-17T10:59:54.666Z,995.85
2019-05-17T11:00:54.555Z,995.81
2019-05-17T11:01:54.536Z,995.86
2019-05-17T11:02:54.539Z,995.88
2019-05-17T11:03:54.626Z,995.91
2019-05-17T11:04:54.486Z,995.85
2019-05-17T11:05:54.499Z,995.88
2019-05-17T11:06:54.467Z,995.88
2019-05-17T11:07:54.456Z,995.85
2019-05-17T11:08:54.478Z,995.77
2019-05-17T11:09:54.462Z,995.80
2019-05-17T11:10:54.447Z,995.92
2019-05-17T11:11:54.419Z,995.89
2019-05-17T11:12:54.558Z,995.91
2019-05-17T11:13:54.496Z,995.83
2019-05-17T11:15:09.799Z,995.83
2019-05-17T11:15:55.368Z,995.86
2019-05-17T11:16:54.376Z,995.81
2019-05-17T11:17:54.379Z,995.84
2019-05-17T11:19:01.422Z,995.72
2019-05-17T11:19:54.353Z,995.81
2019-05-17T11:20:54.347Z,995.78
2019-05-17T11:21:54.339Z,995.64
2019-05-17T11:22:54.324Z,995.80
2019-05-17T11:23:54.315Z,995.67
2019-05-17T11:24:54.388Z,995.70
2019-05-17T11:25:54.287Z,995.67
2019-05-17T11:26:54.267Z,995.71
2019-05-17T11:27:54.264Z,995.78
2019-05-17T11:28:54.255Z,995.77
2019-05-17T11:29:54.366Z,995.78
2019-05-17T11:30:54.235Z,995.74
2019-05-17T11:31:54.216Z,995.80
2019-05-17T11:32:54.207Z,995.82
2019-05-17T11:33:54.211Z,995.72
2019-05-17T11:34:54.297Z,995.64
2019-05-17T11:35:54.177Z,995.69
2019-05-17T11:36:54.150Z,995.72
2019-05-17T11:37:54.277Z,995.72
2019-05-17T11:38:54.146Z,995.70
2019-05-17T11:39:54.139Z,995.70
2019-05-17T11:40:54.131Z,995.78
2019-05-17T11:41:54.115Z,995.73
2019-05-17T11:42:54.116Z,995.77
2019-05-17T11:43:54.188Z,995.80
2019-05-17T11:44:54.078Z,995.73
2019-05-17T11:45:54.160Z,995.64
2019-05-17T11:46:54.051Z,995.71
2019-05-17T11:47:54.034Z,995.67
2019-05-17T11:48:54.019Z,995.66
2019-05-17T11:49:54.022Z,995.68
2019-05-17T11:50:55.230Z,995.70
2019-05-17T11:51:54.022Z,995.73
2019-05-17T11:52:54.030Z,995.76
2019-05-17T11:53:53.981Z,995.73
2019-05-17T11:54:53.970Z,995.72
2019-05-17T11:55:53.952Z,995.75
2019-05-17T11:56:54.019Z,995.64
2019-05-17T11:57:53.933Z,995.69
2019-05-17T11:58:53.931Z,995.67
2019-05-17T11:59:53.919Z,995.67
2019-05-17T12:00:53.901Z,995.69
2019-05-17T12:01:53.906Z,995.76
2019-05-17T12:02:53.984Z,995.75
2019-05-17T12:03:53.873Z,995.67
2019-05-17T12:04:53.862Z,995.67
2019-05-17T12:05:53.850Z,995.66
2019-05-17T12:06:53.952Z,995.68
2019-05-17T12:07:53.833Z,995.70
2019-05-17T12:08:53.813Z,995.71
2019-05-17T12:09:53.806Z,995.85
2019-05-17T12:10:53.929Z,995.73
2019-05-17T12:11:53.785Z,995.70
2019-05-17T12:12:53.754Z,995.61
2019-05-17T12:13:53.866Z,995.67
2019-05-17T12:14:53.766Z,995.59
2019-05-17T12:15:53.731Z,995.62
2019-05-17T12:16:53.825Z,995.63
2019-05-17T12:17:53.776Z,995.64
2019-05-17T12:18:53.705Z,995.75
2019-05-17T12:19:53.805Z,995.70
2019-05-17T12:20:53.665Z,995.95
2019-05-17T12:21:53.677Z,995.95
2019-05-17T12:22:53.773Z,996.04
2019-05-17T12:23:53.656Z,996.17
2019-05-17T12:24:53.750Z,996.20
2019-05-17T12:25:53.694Z,995.99
2019-05-17T12:26:53.606Z,996.11
2019-05-17T12:27:53.719Z,995.85